createdAt,value
2014-09-16T05:46:17.677Z,99
2014-09-16T05:53:18.238Z,108
2014-09-16T06:02:18.895Z,120
2014-09-16T06:10:19.488Z,129
2014-09-16T06:17:20.049Z,136
2014-09-16T06:24:20.594Z,143
2014-09-16T06:34:21.301Z,153
2014-09-16T06:40:21.813Z,161
2014-09-16T06:48:22.406Z,174
2014-09-16T06:54:22.917Z,183
2014-09-16T07:03:23.590Z,200
2014-09-16T07:11:24.200Z,218
2014-09-16T07:19:24.809Z,231
2014-09-16T07:29:25.515Z,251
2014-09-16T07:37:26.125Z,266
2014-09-16T07:45:26.734Z,278
2014-09-16T07:54:27.392Z,294
2014-09-16T08:03:28.049Z,308
2014-09-16T08:09:28.546Z,317
2014-09-16T08:19:29.252Z,325
2014-09-16T08:26:29.814Z,337
2014-09-16T08:36:30.520Z,346
2014-09-16T08:46:31.241Z,352
2014-09-16T08:54:31.835Z,382
2014-09-16T09:02:32.443Z,416
2014-09-16T09:11:33.102Z,411
2014-09-16T09:20:33.760Z,366
2014-09-16T09:28:34.368Z,339
2014-09-16T09:35:34.956Z,335
2014-09-16T09:42:35.726Z,325
2014-09-16T09:51:36.449Z,323
2014-09-16T09:57:36.955Z,322
2014-09-16T10:05:37.567Z,310
2014-09-16T10:11:38.063Z,301
2014-09-16T10:21:38.786Z,312
2014-09-16T10:30:39.442Z,317
2014-09-16T10:39:40.101Z,312
2014-09-16T10:48:40.759Z,314
2014-09-16T10:55:41.304Z,321
2014-09-16T11:04:41.962Z,323
2014-09-16T11:10:42.473Z,326
2014-09-16T11:17:43.018Z,326
2014-09-16T11:25:43.627Z,324
2014-09-16T11:35:44.334Z,326
2014-09-16T11:43:44.943Z,329
2014-09-16T11:51:45.552Z,329
2014-09-16T12:00:46.210Z,332
2014-09-16T12:09:46.868Z,345
2014-09-16T12:18:47.525Z,344
2014-09-16T17:26:41.351Z,34
2014-09-16T17:36:42.058Z,13
2014-09-16T17:44:42.667Z,5
